TimeCDT,TemperatureF,Dew PointF,Humidity,Sea Level PressureIn,VisibilityMPH,Wind Direction,Wind SpeedMPH,Gust SpeedMPH,PrecipitationIn,Events,Conditions,WindDirDegrees,DateUTC
12:56 AM,51.1,42.1,71,30.14,10.0,North,5.8,-,N/A,,Clear,350,2011-10-03 05:56:00
1:56 AM,52.0,41.0,66,30.14,10.0,North,5.8,-,N/A,,Clear,350,2011-10-03 06:56:00
2:56 AM,52.0,39.9,63,30.14,10.0,NNW,5.8,-,N/A,,Clear,340,2011-10-03 07:56:00
3:56 AM,50.0,39.9,68,30.14,10.0,NNW,4.6,-,N/A,,Clear,340,2011-10-03 08:56:00
4:56 AM,48.9,39.9,71,30.17,10.0,North,5.8,-,N/A,,Clear,350,2011-10-03 09:56:00
5:56 AM,48.0,39.0,71,30.18,10.0,North,3.5,-,N/A,,Clear,350,2011-10-03 10:56:00
6:56 AM,43.0,37.9,82,30.19,10.0,North,4.6,-,N/A,,Clear,350,2011-10-03 11:56:00
7:56 AM,51.1,39.9,66,30.20,10.0,NNW,3.5,-,N/A,,Clear,340,2011-10-03 12:56:00
8:56 AM,59.0,41.0,51,30.22,10.0,NE,5.8,-,N/A,,Clear,40,2011-10-03 13:56:00
9:56 AM,64.0,37.9,38,30.23,10.0,NE,9.2,18.4,N/A,,Clear,40,2011-10-03 14:56:00
10:56 AM,69.1,39.0,33,30.23,10.0,East,5.8,-,N/A,,Clear,80,2011-10-03 15:56:00
11:56 AM,71.1,36.0,28,30.23,10.0,Variable,3.5,-,N/A,,Clear,0,2011-10-03 16:56:00
1:56 PM,77.0,30.9,19,30.16,10.0,Variable,5.8,-,N/A,,Clear,0,2011-10-03 18:56:00
2:56 PM,78.1,30.0,17,30.14,10.0,NNW,9.2,-,N/A,,Clear,340,2011-10-03 19:56:00
3:56 PM,79.0,27.0,15,30.13,10.0,NNW,6.9,-,N/A,,Clear,330,2011-10-03 20:56:00
4:56 PM,79.0,33.1,19,30.13,10.0,North,4.6,-,N/A,,Clear,360,2011-10-03 21:56:00
5:56 PM,73.9,36.0,25,30.14,10.0,NNW,4.6,-,N/A,,Clear,330,2011-10-03 22:56:00
6:56 PM,66.0,43.0,43,30.15,10.0,Calm,Calm,-,N/A,,Clear,0,2011-10-03 23:56:00
7:56 PM,60.1,46.9,62,30.17,10.0,Calm,Calm,-,N/A,,Clear,0,2011-10-04 00:56:00
8:56 PM,57.0,46.9,69,30.18,10.0,Calm,Calm,-,N/A,,Clear,0,2011-10-04 01:56:00
9:56 PM,53.1,46.9,80,30.19,10.0,Calm,Calm,-,N/A,,Clear,0,2011-10-04 02:56:00
10:56 PM,54.0,46.0,75,30.19,10.0,North,3.5,-,N/A,,Clear,350,2011-10-04 03:56:00
11:56 PM,53.1,45.0,74,30.19,10.0,North,3.5,-,N/A,,Clear,350,2011-10-04 04:56:00